Time;durP1;ratioP1;P1;durP2;ratioP2;P2;SDS_P1;SDS_P2;PMS_P1;PMS_P2;Temp;Humidity;BMP_temperature;BMP_pressure;BME280_temperature;BME280_humidity;BME280_pressure;Samples;Min_cycle;Max_cycle;Signal;HPM_P1;HPM_P2
2024/01/10 00:00:00;;;;;;;23.77;11.30;;;;;;;;;;5032505;28;20041;-84
2024/01/10 00:02:28;;;;;;;22.40;12.40;;;;;;;;;;5050617;28;20096;-84
2024/01/10 00:04:54;;;;;;;21.30;12.23;;;;;;;;;;5049699;28;20075;-86
2024/01/10 00:07:20;;;;;;;22.95;12.55;;;;;;;;;;5049192;28;20456;-83
2024/01/10 00:09:46;;;;;;;21.88;11.98;;;;;;;;;;5049569;28;20028;-83
2024/01/10 00:12:12;;;;;;;22.90;12.25;;;;;;;;;;5049569;28;20114;-83
2024/01/10 00:14:38;;;;;;;22.27;12.15;;;;;;;;;;5051216;28;20025;-83
2024/01/10 00:17:04;;;;;;;26.98;13.25;;;;;;;;;;5057120;28;20037;-82
2024/01/10 00:19:31;;;;;;;21.55;12.50;;;;;;;;;;5050356;28;20120;-83
2024/01/10 00:21:57;;;;;;;23.20;12.15;;;;;;;;;;5058936;28;20025;-85
2024/01/10 00:24:23;;;;;;;25.52;12.52;;;;;;;;;;5069336;28;20090;-85
2024/01/10 00:26:49;;;;;;;26.17;13.32;;;;;;;;;;5059379;28;20037;-84
2024/01/10 00:29:15;;;;;;;26.23;13.60;;;;;;;;;;5049208;28;20436;-84
2024/01/10 00:31:41;;;;;;;23.35;12.93;;;;;;;;;;5049438;28;20039;-84
2024/01/10 00:34:07;;;;;;;24.02;12.90;;;;;;;;;;5049609;28;20534;-85
2024/01/10 00:36:33;;;;;;;26.52;12.95;;;;;;;;;;5048688;28;20120;-84
2024/01/10 00:38:59;;;;;;;20.85;12.77;;;;;;;;;;5065413;28;20036;-84
2024/01/10 00:41:25;;;;;;;21.42;12.25;;;;;;;;;;5069195;28;20029;-85
2024/01/10 00:43:51;;;;;;;30.52;13.50;;;;;;;;;;5068683;28;20162;-84
2024/01/10 00:46:17;;;;;;;25.73;14.27;;;;;;;;;;5064455;28;20032;-86
2024/01/10 00:48:43;;;;;;;25.50;13.55;;;;;;;;;;5048686;28;20029;-85
2024/01/10 00:51:09;;;;;;;25.63;12.70;;;;;;;;;;5048353;28;20477;-85
2024/01/10 00:53:35;;;;;;;23.30;13.80;;;;;;;;;;5048982;28;20072;-84
2024/01/10 00:56:01;;;;;;;21.98;12.75;;;;;;;;;;5049517;28;20025;-84
2024/01/10 00:58:27;;;;;;;23.45;12.32;;;;;;;;;;5048743;28;20412;-84
2024/01/10 01:00:53;;;;;;;26.63;13.43;;;;;;;;;;5048815;28;20091;-85
2024/01/10 01:03:19;;;;;;;24.10;12.88;;;;;;;;;;5048889;28;20358;-85
2024/01/10 01:05:45;;;;;;;24.35;13.15;;;;;;;;;;5048845;28;20075;-84
2024/01/10 01:08:11;;;;;;;19.42;11.82;;;;;;;;;;5048288;28;20025;-84
2024/01/10 01:10:37;;;;;;;22.23;12.73;;;;;;;;;;5048727;28;20017;-84
2024/01/10 01:13:03;;;;;;;22.42;13.25;;;;;;;;;;5049713;28;20033;-84
2024/01/10 01:15:29;;;;;;;25.35;13.35;;;;;;;;;;5048737;28;20028;-84
2024/01/10 01:17:55;;;;;;;23.52;13.05;;;;;;;;;;5048347;28;20036;-85
2024/01/10 01:20:21;;;;;;;26.48;12.82;;;;;;;;;;5057050;28;20396;-84
2024/01/10 01:22:47;;;;;;;24.42;12.27;;;;;;;;;;5059888;28;20033;-84
2024/01/10 01:25:13;;;;;;;23.55;13.07;;;;;;;;;;5068730;28;20063;-84
2024/01/10 01:27:39;;;;;;;24.33;13.15;;;;;;;;;;5052913;28;20033;-84
2024/01/10 01:30:05;;;;;;;24.92;12.85;;;;;;;;;;5031519;28;20025;-84
2024/01/10 01:32:31;;;;;;;26.92;13.40;;;;;;;;;;5049533;28;20028;-84
2024/01/10 01:34:57;;;;;;;23.38;12.98;;;;;;;;;;5048685;28;20025;-84
2024/01/10 01:37:23;;;;;;;28.27;13.80;;;;;;;;;;5051780;28;20039;-84
2024/01/10 01:39:49;;;;;;;28.80;13.65;;;;;;;;;;5052754;28;20546;-87
2024/01/10 01:42:16;;;;;;;26.67;14.05;;;;;;;;;;5048511;28;20105;-84
2024/01/10 01:44:42;;;;;;;24.58;13.20;;;;;;;;;;5048630;28;20025;-85
2024/01/10 01:47:08;;;;;;;31.38;16.10;;;;;;;;;;5048322;28;20083;-84
2024/01/10 01:49:34;;;;;;;29.27;14.07;;;;;;;;;;5048010;28;20112;-85
2024/01/10 01:52:00;;;;;;;34.28;15.82;;;;;;;;;;5048262;28;20104;-83
2024/01/10 01:54:27;;;;;;;29.35;15.00;;;;;;;;;;5048186;28;20492;-85
2024/01/10 01:56:53;;;;;;;26.58;13.85;;;;;;;;;;5048194;28;20036;-84
2024/01/10 01:59:20;;;;;;;26.88;14.38;;;;;;;;;;5048211;28;20037;-84
2024/01/10 02:01:46;;;;;;;29.58;14.43;;;;;;;;;;5050409;28;20480;-84
2024/01/10 02:04:12;;;;;;;25.60;14.43;;;;;;;;;;5055099;28;20060;-84
2024/01/10 02:06:38;;;;;;;30.58;14.68;;;;;;;;;;5066932;28;20056;-83
2024/01/10 02:09:04;;;;;;;32.55;15.27;;;;;;;;;;5069883;28;20112;-84
2024/01/10 02:11:30;;;;;;;28.35;14.32;;;;;;;;;;5071960;28;20056;-84
2024/01/10 02:13:57;;;;;;;31.88;14.40;;;;;;;;;;5053964;28;20032;-85
2024/01/10 02:16:24;;;;;;;28.80;14.63;;;;;;;;;;5051094;28;20108;-84
2024/01/10 02:18:50;;;;;;;33.17;15.20;;;;;;;;;;5051784;28;20029;-85
2024/01/10 02:21:16;;;;;;;30.75;15.18;;;;;;;;;;5051820;28;20400;-84
2024/01/10 02:23:43;;;;;;;31.13;15.63;;;;;;;;;;5052631;28;20507;-84
2024/01/10 02:26:09;;;;;;;28.50;14.60;;;;;;;;;;5051501;28;20029;-83
2024/01/10 02:28:35;;;;;;;26.75;14.80;;;;;;;;;;5050659;28;20040;-84
2024/01/10 02:31:01;;;;;;;29.70;15.27;;;;;;;;;;5051609;28;20028;-84
2024/01/10 02:33:27;;;;;;;24.25;14.50;;;;;;;;;;5067389;28;20210;-85
2024/01/10 02:35:53;;;;;;;29.27;15.07;;;;;;;;;;5071574;28;20484;-84
2024/01/10 02:38:21;;;;;;;25.48;13.45;;;;;;;;;;5064053;28;20028;-83
2024/01/10 02:40:47;;;;;;;27.70;15.38;;;;;;;;;;5054461;28;20033;-84
2024/01/10 02:43:13;;;;;;;31.30;14.52;;;;;;;;;;5051326;28;20024;-85
2024/01/10 02:45:39;;;;;;;25.42;13.68;;;;;;;;;;5052161;28;20033;-83
2024/01/10 02:48:05;;;;;;;26.23;13.60;;;;;;;;;;5051610;28;20033;-83
2024/01/10 02:50:31;;;;;;;29.55;14.43;;;;;;;;;;5033284;28;20028;-83
2024/01/10 02:52:57;;;;;;;29.15;15.82;;;;;;;;;;5051082;28;20025;-84
2024/01/10 02:55:23;;;;;;;29.17;14.23;;;;;;;;;;5050930;28;20028;-84
2024/01/10 02:57:49;;;;;;;26.02;13.55;;;;;;;;;;5050496;28;20139;-84
2024/01/10 03:00:15;;;;;;;31.23;15.70;;;;;;;;;;5036641;28;20032;-83
2024/01/10 03:02:41;;;;;;;24.45;14.15;;;;;;;;;;5042167;28;20017;-83
2024/01/10 03:05:07;;;;;;;26.88;13.80;;;;;;;;;;5051545;28;20033;-84
2024/01/10 03:07:33;;;;;;;29.52;14.35;;;;;;;;;;5051150;28;20025;-83
2024/01/10 03:09:59;;;;;;;22.80;13.30;;;;;;;;;;5050804;28;20052;-83
2024/01/10 03:12:25;;;;;;;25.65;14.05;;;;;;;;;;5049861;28;20017;-83
2024/01/10 03:14:51;;;;;;;26.98;13.23;;;;;;;;;;5049941;28;20550;-83
2024/01/10 03:17:17;;;;;;;22.13;13.23;;;;;;;;;;5050356;28;20025;-84
2024/01/10 03:19:43;;;;;;;27.25;14.13;;;;;;;;;;5050405;28;20045;-83
2024/01/10 03:22:11;;;;;;;26.50;13.73;;;;;;;;;;5050804;28;20032;-85
2024/01/10 03:24:37;;;;;;;22.70;13.05;;;;;;;;;;5033401;28;20373;-83
2024/01/10 03:27:04;;;;;;;23.75;12.45;;;;;;;;;;5050044;28;20025;-82
2024/01/10 03:29:30;;;;;;;28.63;12.52;;;;;;;;;;5050385;28;20036;-83
2024/01/10 03:31:56;;;;;;;23.75;13.25;;;;;;;;;;5050465;28;20021;-84
2024/01/10 03:34:22;;;;;;;23.83;12.75;;;;;;;;;;5049990;28;20040;-84
2024/01/10 03:36:48;;;;;;;26.00;12.63;;;;;;;;;;5032311;28;20090;-85
2024/01/10 03:39:14;;;;;;;21.65;12.68;;;;;;;;;;5049537;28;20051;-84
2024/01/10 03:41:40;;;;;;;21.60;12.52;;;;;;;;;;5050436;28;20017;-84
2024/01/10 03:44:06;;;;;;;22.33;12.73;;;;;;;;;;5049728;28;20112;-84
2024/01/10 03:46:32;;;;;;;22.88;11.75;;;;;;;;;;5049895;28;20025;-84
2024/01/10 03:48:58;;;;;;;23.23;12.48;;;;;;;;;;5049346;28;20049;-83
2024/01/10 03:51:24;;;;;;;27.08;12.68;;;;;;;;;;5049944;28;20033;-84
2024/01/10 03:53:50;;;;;;;25.25;12.18;;;;;;;;;;5037983;28;20028;-84
2024/01/10 03:56:17;;;;;;;21.50;12.63;;;;;;;;;;5034072;28;20476;-84
2024/01/10 03:58:42;;;;;;;20.35;12.27;;;;;;;;;;5050538;28;20025;-84
2024/01/10 04:01:09;;;;;;;19.98;11.75;;;;;;;;;;5050164;28;20055;-85
2024/01/10 04:03:35;;;;;;;23.77;12.05;;;;;;;;;;5031097;28;20493;-83
2024/01/10 04:06:01;;;;;;;20.08;11.95;;;;;;;;;;5048908;28;20028;-85
2024/01/10 04:08:27;;;;;;;20.55;12.85;;;;;;;;;;5048976;28;20477;-84
2024/01/10 04:10:53;;;;;;;23.00;12.52;;;;;;;;;;5031248;28;20068;-84
2024/01/10 04:13:19;;;;;;;20.75;11.18;;;;;;;;;;5049420;28;20017;-84
2024/01/10 04:15:45;;;;;;;23.27;12.65;;;;;;;;;;5049250;28;20163;-85
2024/01/10 04:18:11;;;;;;;19.25;11.95;;;;;;;;;;5032310;28;20031;-85
2024/01/10 04:20:37;;;;;;;20.95;11.55;;;;;;;;;;5049398;28;20041;-85
2024/01/10 04:23:03;;;;;;;23.98;12.13;;;;;;;;;;5048922;28;20386;-85
2024/01/10 04:25:29;;;;;;;22.63;12.90;;;;;;;;;;5031364;28;20039;-84
2024/01/10 04:27:56;;;;;;;22.50;12.52;;;;;;;;;;5049037;28;20480;-83
2024/01/10 04:30:22;;;;;;;22.10;12.57;;;;;;;;;;5048888;28;20029;-85
2024/01/10 04:32:48;;;;;;;24.38;12.00;;;;;;;;;;5030569;28;20074;-85
2024/01/10 04:35:14;;;;;;;21.08;12.43;;;;;;;;;;5049298;28;20025;-85
2024/01/10 04:37:40;;;;;;;22.83;12.70;;;;;;;;;;5049638;28;20025;-84
2024/01/10 04:40:07;;;;;;;22.17;12.05;;;;;;;;;;5048512;28;20041;-85
2024/01/10 04:42:32;;;;;;;21.70;12.00;;;;;;;;;;5049235;28;20054;-85
2024/01/10 04:44:58;;;;;;;25.25;11.93;;;;;;;;;;5049368;28;20028;-84
2024/01/10 04:47:24;;;;;;;19.80;11.70;;;;;;;;;;5044777;28;20529;-84
2024/01/10 04:49:50;;;;;;;20.10;12.05;;;;;;;;;;5040177;28;20024;-85
2024/01/10 04:52:16;;;;;;;23.00;12.07;;;;;;;;;;5031641;28;20117;-84
2024/01/10 04:54:42;;;;;;;21.55;12.52;;;;;;;;;;5039553;28;20024;-84
2024/01/10 04:57:08;;;;;;;26.65;12.10;;;;;;;;;;5048555;28;20103;-85
2024/01/10 04:59:34;;;;;;;20.63;11.75;;;;;;;;;;5030667;28;20036;-86
2024/01/10 05:02:00;;;;;;;23.38;12.00;;;;;;;;;;5048432;28;20112;-85
2024/01/10 05:04:26;;;;;;;23.88;12.40;;;;;;;;;;5048172;28;20028;-84
2024/01/10 05:06:52;;;;;;;21.60;12.23;;;;;;;;;;5030575;28;20033;-84
2024/01/10 05:09:18;;;;;;;24.42;11.98;;;;;;;;;;5048762;28;20075;-84
2024/01/10 05:11:50;;;;;;;24.48;12.38;;;;;;;;;;5048923;28;20508;-84
2024/01/10 05:14:16;;;;;;;24.48;13.18;;;;;;;;;;5049462;28;20033;-84
2024/01/10 05:16:43;;;;;;;23.88;12.32;;;;;;;;;;5049492;28;20452;-83
2024/01/10 05:19:09;;;;;;;23.40;12.40;;;;;;;;;;5048594;28;20036;-84
2024/01/10 05:21:35;;;;;;;22.90;11.85;;;;;;;;;;5049212;28;20112;-84
2024/01/10 05:24:01;;;;;;;25.35;12.50;;;;;;;;;;5048086;28;20108;-82
2024/01/10 05:26:27;;;;;;;22.85;11.93;;;;;;;;;;5047283;28;20025;-82
2024/01/10 05:28:53;;;;;;;21.70;12.63;;;;;;;;;;5058542;28;20029;-82
2024/01/10 05:31:19;;;;;;;25.08;12.50;;;;;;;;;;5047473;28;20025;-80
2024/01/10 05:33:45;;;;;;;20.70;12.35;;;;;;;;;;5036142;28;20033;-83
2024/01/10 05:36:11;;;;;;;19.92;12.25;;;;;;;;;;5049389;28;20025;-82
2024/01/10 05:38:38;;;;;;;21.83;11.82;;;;;;;;;;5051285;28;20551;-82
2024/01/10 05:41:04;;;;;;;22.27;12.75;;;;;;;;;;5052116;28;20029;-82
2024/01/10 05:43:30;;;;;;;26.63;13.10;;;;;;;;;;5052151;28;20021;-81
2024/01/10 05:45:56;;;;;;;19.90;11.93;;;;;;;;;;5052093;28;20032;-82
2024/01/10 05:48:22;;;;;;;22.48;12.73;;;;;;;;;;5052071;28;20036;-82
2024/01/10 05:50:48;;;;;;;22.63;12.15;;;;;;;;;;5052688;28;20021;-83
2024/01/10 05:53:16;;;;;;;22.40;12.32;;;;;;;;;;5050802;28;20393;-83
2024/01/10 05:55:42;;;;;;;;;;;;;;;;;;5052423;28;20023;-83
2024/01/10 05:58:09;;;;;;;24.30;12.10;;;;;;;;;;5052261;28;19904;-85
2024/01/10 06:00:35;;;;;;;18.48;11.43;;;;;;;;;;5051191;28;20415;-83
2024/01/10 06:03:01;;;;;;;20.30;11.85;;;;;;;;;;5051977;28;20100;-83
2024/01/10 06:05:27;;;;;;;18.88;11.52;;;;;;;;;;5051961;28;20109;-82
2024/01/10 06:07:53;;;;;;;21.80;12.98;;;;;;;;;;5033627;28;20439;-83
2024/01/10 06:10:19;;;;;;;25.13;12.85;;;;;;;;;;5052620;28;20025;-83
2024/01/10 06:12:45;;;;;;;23.00;12.63;;;;;;;;;;5033871;28;20437;-82
2024/01/10 06:15:11;;;;;;;19.42;11.55;;;;;;;;;;5051750;28;20350;-81
2024/01/10 06:17:38;;;;;;;24.80;12.48;;;;;;;;;;5051857;28;20029;-83
2024/01/10 06:20:04;;;;;;;20.33;12.50;;;;;;;;;;5051705;28;20431;-84
2024/01/10 06:22:30;;;;;;;25.45;13.70;;;;;;;;;;5051640;28;20520;-82
2024/01/10 06:24:56;;;;;;;22.75;12.57;;;;;;;;;;5051719;28;20108;-83
2024/01/10 06:27:22;;;;;;;24.00;12.80;;;;;;;;;;5051627;28;20025;-82
2024/01/10 06:29:48;;;;;;;22.92;12.70;;;;;;;;;;5052464;28;20036;-83
2024/01/10 06:32:14;;;;;;;21.08;12.45;;;;;;;;;;5051481;28;20026;-84
2024/01/10 06:34:40;;;;;;;25.45;13.05;;;;;;;;;;5051354;28;20441;-85
2024/01/10 06:37:07;;;;;;;18.17;11.45;;;;;;;;;;5051493;28;20108;-84
2024/01/10 06:39:33;;;;;;;23.08;12.68;;;;;;;;;;5051240;28;20033;-83
2024/01/10 06:41:59;;;;;;;22.25;11.70;;;;;;;;;;5051251;28;20046;-83
2024/01/10 06:44:27;;;;;;;24.33;13.07;;;;;;;;;;5051215;28;20048;-83
2024/01/10 06:46:53;;;;;;;24.27;12.98;;;;;;;;;;5040663;28;20073;-81
2024/01/10 06:49:19;;;;;;;24.38;12.20;;;;;;;;;;5034972;28;20025;-83
2024/01/10 06:51:45;;;;;;;23.30;13.02;;;;;;;;;;5051952;28;20516;-82
2024/01/10 06:54:11;;;;;;;22.10;12.68;;;;;;;;;;5041274;28;20028;-84
2024/01/10 06:56:37;;;;;;;21.27;12.13;;;;;;;;;;5058434;28;20174;-82
2024/01/10 06:59:03;;;;;;;21.95;12.65;;;;;;;;;;5059192;28;20024;-85
2024/01/10 07:01:29;;;;;;;23.23;13.13;;;;;;;;;;5054963;28;20108;-84
2024/01/10 07:03:55;;;;;;;24.25;13.18;;;;;;;;;;5060397;28;20393;-83
2024/01/10 07:06:22;;;;;;;23.63;13.43;;;;;;;;;;5056033;28;20052;-84
2024/01/10 07:08:49;;;;;;;25.05;12.95;;;;;;;;;;5060785;28;20031;-83
2024/01/10 07:11:15;;;;;;;21.17;12.50;;;;;;;;;;5054604;28;20063;-83
2024/01/10 07:13:41;;;;;;;22.40;12.35;;;;;;;;;;5031404;28;20052;-83
2024/01/10 07:16:08;;;;;;;19.80;12.88;;;;;;;;;;5050347;28;20048;-84
2024/01/10 07:18:34;;;;;;;25.40;14.05;;;;;;;;;;5050498;28;20059;-86
2024/01/10 07:21:00;;;;;;;21.02;12.15;;;;;;;;;;5032851;28;20036;-84
2024/01/10 07:23:26;;;;;;;28.45;13.10;;;;;;;;;;5050897;28;20181;-83
2024/01/10 07:25:52;;;;;;;21.80;12.70;;;;;;;;;;5030774;28;20119;-80
2024/01/10 07:28:19;;;;;;;21.35;13.57;;;;;;;;;;5046254;28;20075;-87
2024/01/10 07:30:45;;;;;;;25.50;12.93;;;;;;;;;;5048807;28;20025;-80
2024/01/10 07:33:11;;;;;;;25.95;13.18;;;;;;;;;;5049120;28;20033;-80
2024/01/10 07:35:38;;;;;;;22.20;12.85;;;;;;;;;;5049197;28;20048;-80
2024/01/10 07:38:07;;;;;;;26.40;13.63;;;;;;;;;;5049340;28;20025;-80
2024/01/10 07:40:33;;;;;;;21.35;12.88;;;;;;;;;;5031319;28;20070;-79
2024/01/10 07:42:59;;;;;;;23.55;12.70;;;;;;;;;;5049287;28;20025;-81
2024/01/10 07:45:25;;;;;;;26.67;13.52;;;;;;;;;;5049072;28;20028;-80
2024/01/10 07:47:51;;;;;;;20.23;12.52;;;;;;;;;;5050211;28;20089;-80
2024/01/10 07:50:17;;;;;;;27.95;13.57;;;;;;;;;;5049409;28;20029;-80
2024/01/10 07:52:45;;;;;;;23.65;14.50;;;;;;;;;;5049404;28;20610;-79
2024/01/10 07:55:11;;;;;;;26.90;14.23;;;;;;;;;;5049252;28;20481;-79
2024/01/10 07:57:38;;;;;;;23.75;13.13;;;;;;;;;;5032080;28;20024;-79
2024/01/10 08:00:05;;;;;;;26.70;13.40;;;;;;;;;;5049184;28;20063;-80
2024/01/10 08:02:34;;;;;;;23.45;13.77;;;;;;;;;;5049075;28;20021;-79
2024/01/10 08:05:01;;;;;;;26.08;13.05;;;;;;;;;;5049311;28;20055;-79
2024/01/10 08:07:27;;;;;;;23.92;13.38;;;;;;;;;;5049609;28;20025;-79
2024/01/10 08:09:53;;;;;;;32.17;13.52;;;;;;;;;;5049193;28;20078;-79
2024/01/10 08:12:19;;;;;;;21.25;12.70;;;;;;;;;;5050301;28;20092;-84
2024/01/10 08:14:45;;;;;;;24.17;13.60;;;;;;;;;;5049333;28;20055;-79
2024/01/10 08:17:12;;;;;;;25.13;14.07;;;;;;;;;;5049220;28;20408;-79
2024/01/10 08:19:38;;;;;;;22.20;13.30;;;;;;;;;;5049109;28;20094;-79
2024/01/10 08:22:04;;;;;;;21.83;13.07;;;;;;;;;;5048610;28;20041;-80
2024/01/10 08:24:30;;;;;;;25.00;13.70;;;;;;;;;;5048895;28;20040;-79
2024/01/10 08:26:56;;;;;;;24.15;14.15;;;;;;;;;;5061235;28;20231;-80
2024/01/10 08:29:22;;;;;;;24.83;13.82;;;;;;;;;;5069891;28;20408;-87
2024/01/10 08:31:48;;;;;;;26.55;14.15;;;;;;;;;;5070123;28;20028;-79
2024/01/10 08:34:14;;;;;;;25.27;13.07;;;;;;;;;;5050987;28;20032;-79
2024/01/10 08:36:40;;;;;;;26.77;14.15;;;;;;;;;;5069244;28;20108;-84
2024/01/10 08:39:06;;;;;;;24.27;12.95;;;;;;;;;;5068952;28;20115;-88
2024/01/10 08:41:33;;;;;;;24.45;13.65;;;;;;;;;;5069171;28;20021;-80
2024/01/10 08:44:00;;;;;;;24.58;13.65;;;;;;;;;;5051245;28;20035;-80
2024/01/10 08:46:26;;;;;;;27.10;14.00;;;;;;;;;;5069129;28;20024;-79
2024/01/10 08:48:52;;;;;;;23.40;12.93;;;;;;;;;;5069625;28;20025;-79
2024/01/10 08:51:18;;;;;;;25.85;13.43;;;;;;;;;;5068773;28;20114;-79
2024/01/10 08:53:44;;;;;;;23.40;12.90;;;;;;;;;;5050761;28;20154;-87
2024/01/10 08:56:10;;;;;;;27.33;14.10;;;;;;;;;;5069370;28;20468;-85
2024/01/10 08:58:37;;;;;;;25.08;13.60;;;;;;;;;;5068902;28;20062;-85
2024/01/10 09:01:04;;;;;;;24.33;13.20;;;;;;;;;;5068690;28;20032;-87
2024/01/10 09:03:30;;;;;;;24.55;12.98;;;;;;;;;;5068567;28;20021;-86
2024/01/10 09:05:56;;;;;;;24.30;13.43;;;;;;;;;;5050418;28;20484;-83
2024/01/10 09:08:23;;;;;;;22.02;12.73;;;;;;;;;;5069548;28;20020;-84
2024/01/10 09:10:49;;;;;;;25.27;12.80;;;;;;;;;;5068295;28;20069;-85
2024/01/10 09:13:15;;;;;;;26.63;13.68;;;;;;;;;;5068596;28;20036;-83
2024/01/10 09:15:42;;;;;;;24.20;13.30;;;;;;;;;;5068588;28;20017;-87
2024/01/10 09:18:08;;;;;;;24.40;13.35;;;;;;;;;;5050447;28;20412;-87
2024/01/10 09:20:35;;;;;;;22.48;12.98;;;;;;;;;;5068237;28;20124;-83
2024/01/10 09:23:02;;;;;;;25.05;14.00;;;;;;;;;;5068482;28;20477;-81
2024/01/10 09:25:28;;;;;;;23.98;12.90;;;;;;;;;;5068567;28;20048;-85
2024/01/10 09:27:54;;;;;;;23.77;13.30;;;;;;;;;;5050479;28;20385;-80
2024/01/10 09:30:20;;;;;;;30.95;14.02;;;;;;;;;;5069237;28;20070;-84
2024/01/10 09:32:47;;;;;;;26.10;13.77;;;;;;;;;;5068298;28;20024;-80
2024/01/10 09:35:13;;;;;;;23.58;13.52;;;;;;;;;;5068413;28;20562;-85
2024/01/10 09:37:39;;;;;;;28.50;14.35;;;;;;;;;;5068491;28;20028;-87
2024/01/10 09:40:08;;;;;;;30.92;14.05;;;;;;;;;;5050188;28;20070;-83
2024/01/10 09:42:36;;;;;;;26.02;13.07;;;;;;;;;;5068195;28;20086;-82
2024/01/10 09:45:05;;;;;;;30.30;14.65;;;;;;;;;;5068031;28;20024;-85
2024/01/10 09:47:32;;;;;;;28.55;13.40;;;;;;;;;;5068288;28;20032;-85
2024/01/10 09:49:58;;;;;;;27.00;13.43;;;;;;;;;;5068398;28;20425;-85
2024/01/10 09:52:26;;;;;;;23.30;14.18;;;;;;;;;;5068872;28;20066;-81
2024/01/10 09:54:55;;;;;;;24.00;13.77;;;;;;;;;;5068625;28;20059;-83
2024/01/10 09:57:23;;;;;;;27.45;14.00;;;;;;;;;;5069131;28;20036;-84
2024/01/10 09:59:51;;;;;;;22.27;12.90;;;;;;;;;;5069136;28;20442;-86
2024/01/10 10:02:18;;;;;;;29.95;14.80;;;;;;;;;;5068162;28;20130;-84
2024/01/10 10:04:49;;;;;;;28.23;14.75;;;;;;;;;;5068218;28;20429;-86
2024/01/10 10:07:15;;;;;;;27.65;15.07;;;;;;;;;;5068335;28;20476;-83
2024/01/10 10:09:41;;;;;;;30.58;15.13;;;;;;;;;;5068090;28;20031;-87
2024/01/10 10:12:07;;;;;;;27.77;14.18;;;;;;;;;;5067686;28;20043;-85
2024/01/10 10:14:33;;;;;;;28.15;14.40;;;;;;;;;;5067717;28;20036;-85
2024/01/10 10:17:15;;;;;;;27.27;13.65;;;;;;;;;;5068168;28;20095;-85
2024/01/10 10:19:41;;;;;;;25.73;13.73;;;;;;;;;;5068292;28;20036;-81
2024/01/10 10:22:11;;;;;;;29.75;15.07;;;;;;;;;;5069061;28;20035;-84
2024/01/10 10:24:37;;;;;;;25.88;13.18;;;;;;;;;;5071525;28;20103;-82
2024/01/10 10:27:09;;;;;;;27.63;13.85;;;;;;;;;;5058416;28;20072;-82
2024/01/10 10:29:36;;;;;;;27.50;15.70;;;;;;;;;;5051820;28;20083;-86
2024/01/10 10:32:02;;;;;;;26.48;14.73;;;;;;;;;;5051769;28;20142;-83
2024/01/10 10:34:32;;;;;;;30.58;16.08;;;;;;;;;;5051521;28;20032;-81
2024/01/10 10:36:58;;;;;;;25.65;14.77;;;;;;;;;;5051513;28;20020;-88
2024/01/10 10:39:24;;;;;;;32.90;16.52;;;;;;;;;;5052018;28;20029;-82
2024/01/10 10:41:53;;;;;;;25.55;14.38;;;;;;;;;;5034201;28;20029;-86
2024/01/10 10:44:22;;;;;;;24.10;13.88;;;;;;;;;;5033545;28;20033;-84
2024/01/10 10:46:51;;;;;;;31.98;16.60;;;;;;;;;;5051381;28;20025;-82
2024/01/10 10:49:18;;;;;;;26.17;15.05;;;;;;;;;;5051017;28;20491;-84
2024/01/10 10:51:44;;;;;;;27.85;13.68;;;;;;;;;;5051361;28;20029;-81
2024/01/10 10:54:10;;;;;;;27.05;13.88;;;;;;;;;;5033010;28;20514;-87
2024/01/10 10:56:36;;;;;;;26.02;13.90;;;;;;;;;;5050918;28;20393;-82
2024/01/10 10:59:03;;;;;;;29.35;14.77;;;;;;;;;;5050772;28;20107;-85
2024/01/10 11:01:30;;;;;;;26.25;14.02;;;;;;;;;;5050868;28;20028;-84
2024/01/10 11:03:57;;;;;;;29.55;15.07;;;;;;;;;;5051062;28;20064;-85
2024/01/10 11:06:23;;;;;;;28.63;14.18;;;;;;;;;;5051697;28;20025;-84
2024/01/10 11:08:52;;;;;;;33.35;16.70;;;;;;;;;;5032518;28;20537;-84
2024/01/10 11:11:18;;;;;;;25.10;14.55;;;;;;;;;;5051001;28;20032;-84
2024/01/10 11:14:03;;;;;;;24.83;14.10;;;;;;;;;;5032634;28;20254;-83
2024/01/10 11:16:36;;;;;;;26.92;14.57;;;;;;;;;;5050342;28;20104;-83
2024/01/10 11:19:02;;;;;;;28.13;14.48;;;;;;;;;;5032241;28;20400;-84
2024/01/10 11:21:43;;;;;;;24.88;14.43;;;;;;;;;;5030608;28;20044;-86
2024/01/10 11:24:10;;;;;;;32.15;17.23;;;;;;;;;;5050406;28;20060;-83
2024/01/10 11:26:37;;;;;;;26.83;14.43;;;;;;;;;;5049771;28;20056;-84
2024/01/10 11:29:05;;;;;;;29.60;15.95;;;;;;;;;;5050200;28;20489;-85
2024/01/10 11:31:33;;;;;;;26.03;14.17;;;;;;;;;;5050194;28;20031;-85
2024/01/10 11:34:03;;;;;;;26.52;13.75;;;;;;;;;;5049093;28;20052;-85
2024/01/10 11:36:29;;;;;;;30.10;15.35;;;;;;;;;;5050229;28;20132;-86
2024/01/10 11:39:01;;;;;;;27.73;14.02;;;;;;;;;;5050222;28;20021;-82
2024/01/10 11:41:27;;;;;;;26.52;14.27;;;;;;;;;;5050176;28;20029;-85
2024/01/10 11:44:11;;;;;;;25.23;14.40;;;;;;;;;;5050994;28;20025;-83
2024/01/10 11:46:46;;;;;;;29.00;14.98;;;;;;;;;;5049883;28;20057;-88
2024/01/10 11:49:14;;;;;;;26.77;14.50;;;;;;;;;;5050012;28;20037;-87
2024/01/10 11:51:42;;;;;;;25.77;14.70;;;;;;;;;;5049709;28;20067;-84
2024/01/10 11:54:08;;;;;;;25.85;14.25;;;;;;;;;;5049494;28;20094;-84
2024/01/10 11:56:46;;;;;;;27.90;15.00;;;;;;;;;;5049288;28;20028;-89
2024/01/10 11:59:15;;;;;;;44.58;22.52;;;;;;;;;;5031429;28;20029;-85
2024/01/10 12:01:42;;;;;;;41.75;23.05;;;;;;;;;;5049512;28;20070;-85
2024/01/10 12:04:09;;;;;;;33.90;17.77;;;;;;;;;;5049362;28;20025;-88
2024/01/10 12:06:36;;;;;;;25.95;14.13;;;;;;;;;;5049330;28;20025;-86
2024/01/10 12:09:08;;;;;;;25.88;15.65;;;;;;;;;;5049608;28;20032;-86
2024/01/10 12:11:34;;;;;;;31.40;15.07;;;;;;;;;;5049434;28;20017;-88
2024/01/10 12:14:01;;;;;;;26.65;15.65;;;;;;;;;;5048820;28;20087;-89
2024/01/10 12:16:27;;;;;;;34.13;18.23;;;;;;;;;;5049587;28;20056;-86
2024/01/10 12:18:53;;;;;;;29.08;16.65;;;;;;;;;;5050080;28;20028;-88
2024/01/10 12:21:19;;;;;;;36.80;19.80;;;;;;;;;;5031884;28;20033;-88
2024/01/10 12:23:47;;;;;;;35.67;17.95;;;;;;;;;;5031789;28;20646;-85
2024/01/10 12:26:13;;;;;;;33.15;18.23;;;;;;;;;;5049760;28;20040;-84
2024/01/10 12:28:39;;;;;;;34.92;17.80;;;;;;;;;;5049580;28;20021;-87
2024/01/10 12:31:07;;;;;;;32.22;16.73;;;;;;;;;;5049403;28;20056;-87
2024/01/10 12:33:34;;;;;;;37.80;18.58;;;;;;;;;;5049488;28;20481;-89
2024/01/10 12:36:19;;;;;;;36.35;18.35;;;;;;;;;;5049205;28;20456;-91
2024/01/10 12:38:45;;;;;;;39.55;21.15;;;;;;;;;;5031619;28;20384;-88
2024/01/10 12:41:12;;;;;;;31.30;16.52;;;;;;;;;;5049532;28;20111;-91
2024/01/10 12:43:38;;;;;;;27.38;14.70;;;;;;;;;;5031752;28;20029;-91
2024/01/10 12:46:04;;;;;;;33.88;18.02;;;;;;;;;;5031249;28;20362;-87
2024/01/10 12:48:31;;;;;;;31.67;16.48;;;;;;;;;;5031614;28;20408;-90
2024/01/10 12:51:00;;;;;;;28.13;15.43;;;;;;;;;;5049676;28;20499;-85
2024/01/10 12:53:26;;;;;;;26.05;14.30;;;;;;;;;;5050792;28;20059;-89
2024/01/10 12:55:52;;;;;;;33.45;18.73;;;;;;;;;;5050287;28;20484;-87
2024/01/10 12:58:19;;;;;;;30.45;15.32;;;;;;;;;;5049094;28;20075;-89
2024/01/10 13:00:45;;;;;;;29.23;15.70;;;;;;;;;;5049107;28;20033;-90
2024/01/10 13:03:12;;;;;;;27.17;15.35;;;;;;;;;;5049298;28;20025;-87
2024/01/10 13:05:38;;;;;;;31.13;15.98;;;;;;;;;;5031620;28;20392;-87
2024/01/10 13:08:05;;;;;;;35.55;19.40;;;;;;;;;;5044248;28;20100;-82
2024/01/10 13:10:31;;;;;;;33.78;16.27;;;;;;;;;;5047456;28;20021;-83
2024/01/10 13:12:57;;;;;;;31.33;16.75;;;;;;;;;;5049185;28;20177;-83
2024/01/10 13:15:23;;;;;;;32.65;16.90;;;;;;;;;;5049338;28;20021;-83
2024/01/10 13:17:49;;;;;;;32.58;17.88;;;;;;;;;;5048206;28;20017;-83
2024/01/10 13:20:15;;;;;;;31.02;15.77;;;;;;;;;;5047739;28;20091;-83
2024/01/10 13:22:41;;;;;;;73.35;29.50;;;;;;;;;;5047579;28;20040;-83
2024/01/10 13:25:07;;;;;;;28.63;16.85;;;;;;;;;;5047790;28;20052;-83
2024/01/10 13:27:34;;;;;;;33.97;18.15;;;;;;;;;;5047588;28;20044;-84
2024/01/10 13:30:00;;;;;;;47.70;24.75;;;;;;;;;;5047234;28;20443;-83
2024/01/10 13:32:26;;;;;;;48.72;23.20;;;;;;;;;;5048275;28;20104;-83
2024/01/10 13:34:52;;;;;;;28.27;15.07;;;;;;;;;;5047192;28;20029;-83
2024/01/10 13:37:17;;;;;;;32.33;17.80;;;;;;;;;;5029603;28;20116;-85
2024/01/10 13:39:43;;;;;;;33.63;15.90;;;;;;;;;;5047470;28;20043;-85
2024/01/10 13:42:12;;;;;;;33.83;16.63;;;;;;;;;;5046854;28;20025;-84
2024/01/10 13:44:38;;;;;;;;;;;;;;;;;;5047804;28;20021;-83
2024/01/10 13:47:05;;;;;;;25.77;15.05;;;;;;;;;;5047169;28;20343;-85
2024/01/10 13:49:31;;;;;;;30.85;16.85;;;;;;;;;;5047028;28;20094;-83
2024/01/10 13:51:57;;;;;;;35.72;16.15;;;;;;;;;;5047742;28;20405;-83
2024/01/10 13:54:23;;;;;;;27.65;15.63;;;;;;;;;;5047107;28;20025;-82
2024/01/10 13:56:49;;;;;;;29.63;14.85;;;;;;;;;;5047760;28;20966;-82
2024/01/10 13:59:15;;;;;;;31.55;15.40;;;;;;;;;;5050546;28;20025;-83
2024/01/10 14:01:41;;;;;;;25.85;14.38;;;;;;;;;;5050789;28;20058;-84
2024/01/10 14:04:07;;;;;;;26.88;14.63;;;;;;;;;;5050661;28;20096;-83
2024/01/10 14:06:33;;;;;;;28.33;15.50;;;;;;;;;;5050635;28;20492;-83
2024/01/10 14:08:59;;;;;;;27.00;13.90;;;;;;;;;;5050445;28;20032;-84
2024/01/10 14:11:27;;;;;;;27.52;14.20;;;;;;;;;;5051446;28;20029;-83
2024/01/10 14:13:54;;;;;;;28.13;15.05;;;;;;;;;;5050188;28;20017;-85